ISA weather

Mount Isa Airport
Mount Isa, Queensland, Australia

Public forecast

Using degrees Celsius for public forecast. Weather courtesy of forecast.io.

Current aviation weather report (METAR) for Mount Isa Airport

Retrieved 2020/07/12 15:30 UTC (7 minutes ago):

YBMA 121530Z AUTO 16009KT 9999 // NCD 11/M01 Q1021 RF000/0000

Aviation forecast (TAF) for Mount Isa Airport

Forecast is more than 6 hours old.

Retrieved 2020/07/12 06:33 UTC (9 hours ago):

TAF YBMA 120522Z 1206/1218 17010KT CAVOK